Global Glory — 3FHR8 — position and weather

sailwx.info

Track history (hours):
 
Tides and Currents Weather Stations Pressure Air Temp Water Temp Dewpoint Dewpoint Depression Visibility Wind Speed Wind Dir Waves Ship Positions

Global Glory

Last reported at 2015-Aug-31 08:34 UTC. Time now 2015-Aug-31 08:49 UTC.
Position N 31°25' E 121°31'.

Length 189 m; draft 10.7 m.

Type: Cargo ship. MMSI: 354338000.

Date/timePositionNaut miles runAvg speedWind from/ knotsBaromVisibWave heightAir tempDewpointWater temp
2015-Aug-31 08:34N 31°25' E 121°31'8 8.2
2015-Aug-31 07:33N 31°30' E 121°23'0 0.0
2015-Aug-31 06:31N 31°30' E 121°23'0 0.0
2015-Aug-31 05:31N 31°30' E 121°23'0 0.0
2015-Aug-31 03:31N 31°30' E 121°23'0 0.0
2015-Aug-31 02:31N 31°30' E 121°23'0 0.0
2015-Aug-31 01:31N 31°30' E 121°23'0 0.0
2015-Aug-31 00:31N 31°30' E 121°23'0 0.0
2015-Aug-30 23:31N 31°30' E 121°23'0 0.0
2015-Aug-30 22:31N 31°30' E 121°23'0 0.0
2015-Aug-30 21:31N 31°30' E 121°23'0 0.0
2015-Aug-30 20:31N 31°30' E 121°23'0 0.0
2015-Aug-30 19:31N 31°30' E 121°23'0 0.0
2015-Aug-30 18:31N 31°30' E 121°23'0 0.0
2015-Aug-30 17:31N 31°30' E 121°23'0 0.0
2015-Aug-30 16:31N 31°30' E 121°23'0 0.0
2015-Aug-30 15:31N 31°30' E 121°23'0 0.0
2015-Aug-30 14:31N 31°30' E 121°23'0 0.0
2015-Aug-30 13:31N 31°30' E 121°23'0 0.0
2015-Aug-30 12:31N 31°30' E 121°23'0 0.0
2015-Aug-30 11:31N 31°30' E 121°23'0 0.0
2015-Aug-30 10:31N 31°30' E 121°23'0 0.0
2015-Aug-30 09:31N 31°30' E 121°23'0 0.0
2015-Aug-30 08:31N 31°30' E 121°23'0 0.0
2015-Aug-30 07:31N 31°30' E 121°23'0 0.0
2015-Aug-30 06:31N 31°30' E 121°23'0 0.0
2015-Aug-30 05:32N 31°30' E 121°23'0 0.0
2015-Aug-30 04:31N 31°30' E 121°23'0 0.0
2015-Aug-30 03:31N 31°30' E 121°23'0 0.0
2015-Aug-30 02:31N 31°30' E 121°23'0 0.0
2015-Aug-30 01:31N 31°30' E 121°23'0 0.0
2015-Aug-30 00:31N 31°30' E 121°23'0 0.0
2015-Aug-29 23:31N 31°30' E 121°23'0 0.0
2015-Aug-29 22:31N 31°30' E 121°23'0 0.0
2015-Aug-29 21:31N 31°30' E 121°23'0 0.0
2015-Aug-29 20:31N 31°30' E 121°23'0 0.0
2015-Aug-29 19:31N 31°30' E 121°23'0 0.0
2015-Aug-29 18:31N 31°30' E 121°23'0 0.0
2015-Aug-29 17:31N 31°30' E 121°23'0 0.0
2015-Aug-29 16:19N 31°30' E 121°23'0 0.0
2015-Aug-29 15:28N 31°30' E 121°23'0 0.0
2015-Aug-29 14:22N 31°30' E 121°23'0 0.0
2015-Aug-29 13:28N 31°30' E 121°23'0 0.0
2015-Aug-29 12:31N 31°30' E 121°23'0 0.0
2015-Aug-29 11:31N 31°30' E 121°23'0 0.0
2015-Aug-29 10:31N 31°30' E 121°23'0 0.0
2015-Aug-29 09:31N 31°30' E 121°23'0 0.0
2015-Aug-29 08:28N 31°30' E 121°23'0 0.0
2015-Aug-29 07:31N 31°30' E 121°23'0 0.0
2015-Aug-29 06:31N 31°30' E 121°23'0 0.0
2015-Aug-29 05:31N 31°30' E 121°23'0 0.0
2015-Aug-29 04:28N 31°30' E 121°23'0 0.0
2015-Aug-29 03:31N 31°30' E 121°23'0 0.0
2015-Aug-29 02:31N 31°30' E 121°23'0 0.0
2015-Aug-29 01:31N 31°30' E 121°23'0 0.0
2015-Aug-29 00:31N 31°30' E 121°23'0 0.0
2015-Aug-28 23:28N 31°30' E 121°23'0 0.0
2015-Aug-28 22:31N 31°30' E 121°23'0 0.0
2015-Aug-28 21:31N 31°30' E 121°23'0 0.0
2015-Aug-28 20:31N 31°30' E 121°23'0 0.0
2015-Aug-28 19:31N 31°30' E 121°23'0 0.0
2015-Aug-28 18:31N 31°30' E 121°23'2 2.2
2015-Aug-28 17:33N 31°31' E 121°21'2 1.6
2015-Aug-28 16:32N 31°32' E 121°23'0 0.0
2015-Aug-28 15:32N 31°32' E 121°23'0 0.0
2015-Aug-28 14:32N 31°32' E 121°23'0 0.1
2015-Aug-28 13:33N 31°32' E 121°23'0 0.2
2015-Aug-28 12:33N 31°32' E 121°23'0 0.0
2015-Aug-28 11:33N 31°32' E 121°23'0 0.0
2015-Aug-28 10:33N 31°32' E 121°23'0 0.0
2015-Aug-28 09:33N 31°32' E 121°23'0 0.0
2015-Aug-28 08:33N 31°32' E 121°23'0 0.0
2015-Aug-28 07:33N 31°32' E 121°23'0 0.0
2015-Aug-28 06:33N 31°32' E 121°23'0 0.2
2015-Aug-28 05:33N 31°32' E 121°23'4 3.7
2015-Aug-28 04:33N 31°29' E 121°26'1111.2
2015-Aug-28 03:33N 31°23' E 121°37'9 9.2
2015-Aug-28 02:33N 31°17' E 121°45'53 1.9
2015-Aug-26 23:09N 31°02' E 122°44'0 0.0
2015-Aug-26 21:33N 31°02' E 122°44'0 0.1
2015-Aug-26 20:32N 31°02' E 122°44'0 0.0
2015-Aug-26 19:33N 31°02' E 122°44'0 0.0
2015-Aug-26 18:33N 31°02' E 122°44'0 0.0
2015-Aug-26 17:27N 31°02' E 122°44'30910.0
2015-Aug-25 10:33N 35°34' E 119°49'  
2015-Aug-21 21:16N 31°16' E 122°41'  
Track history (hours):
 
Tides and Currents Weather Stations Pressure Air Temp Water Temp Dewpoint Dewpoint Depression Visibility Wind Speed Wind Dir Waves Ship Positions

Global Glory

Last reported at 2015-Aug-31 08:34 UTC. Time now 2015-Aug-31 08:49 UTC.
Position N 31°25' E 121°31'.

Length 189 m; draft 10.7 m.

Type: Cargo ship. MMSI: 354338000.

Date/timePositionNaut miles runAvg speedWind from/ knotsBaromVisibWave heightAir tempDewpointWater temp
2015-Aug-31 08:34N 31°25' E 121°31'8 8.2
2015-Aug-31 07:33N 31°30' E 121°23'0 0.0
2015-Aug-31 06:31N 31°30' E 121°23'0 0.0
2015-Aug-31 05:31N 31°30' E 121°23'0 0.0
2015-Aug-31 03:31N 31°30' E 121°23'0 0.0
2015-Aug-31 02:31N 31°30' E 121°23'0 0.0
2015-Aug-31 01:31N 31°30' E 121°23'0 0.0
2015-Aug-31 00:31N 31°30' E 121°23'0 0.0
2015-Aug-30 23:31N 31°30' E 121°23'0 0.0
2015-Aug-30 22:31N 31°30' E 121°23'0 0.0
2015-Aug-30 21:31N 31°30' E 121°23'0 0.0
2015-Aug-30 20:31N 31°30' E 121°23'0 0.0
2015-Aug-30 19:31N 31°30' E 121°23'0 0.0
2015-Aug-30 18:31N 31°30' E 121°23'0 0.0
2015-Aug-30 17:31N 31°30' E 121°23'0 0.0
2015-Aug-30 16:31N 31°30' E 121°23'0 0.0
2015-Aug-30 15:31N 31°30' E 121°23'0 0.0
2015-Aug-30 14:31N 31°30' E 121°23'0 0.0
2015-Aug-30 13:31N 31°30' E 121°23'0 0.0
2015-Aug-30 12:31N 31°30' E 121°23'0 0.0
2015-Aug-30 11:31N 31°30' E 121°23'0 0.0
2015-Aug-30 10:31N 31°30' E 121°23'0 0.0
2015-Aug-30 09:31N 31°30' E 121°23'0 0.0
2015-Aug-30 08:31N 31°30' E 121°23'0 0.0
2015-Aug-30 07:31N 31°30' E 121°23'0 0.0
2015-Aug-30 06:31N 31°30' E 121°23'0 0.0
2015-Aug-30 05:32N 31°30' E 121°23'0 0.0
2015-Aug-30 04:31N 31°30' E 121°23'0 0.0
2015-Aug-30 03:31N 31°30' E 121°23'0 0.0
2015-Aug-30 02:31N 31°30' E 121°23'0 0.0
2015-Aug-30 01:31N 31°30' E 121°23'0 0.0
2015-Aug-30 00:31N 31°30' E 121°23'0 0.0
2015-Aug-29 23:31N 31°30' E 121°23'0 0.0
2015-Aug-29 22:31N 31°30' E 121°23'0 0.0
2015-Aug-29 21:31N 31°30' E 121°23'0 0.0
2015-Aug-29 20:31N 31°30' E 121°23'0 0.0
2015-Aug-29 19:31N 31°30' E 121°23'0 0.0
2015-Aug-29 18:31N 31°30' E 121°23'0 0.0
2015-Aug-29 17:31N 31°30' E 121°23'0 0.0
2015-Aug-29 16:19N 31°30' E 121°23'0 0.0
2015-Aug-29 15:28N 31°30' E 121°23'0 0.0
2015-Aug-29 14:22N 31°30' E 121°23'0 0.0
2015-Aug-29 13:28N 31°30' E 121°23'0 0.0
2015-Aug-29 12:31N 31°30' E 121°23'0 0.0
2015-Aug-29 11:31N 31°30' E 121°23'0 0.0
2015-Aug-29 10:31N 31°30' E 121°23'0 0.0
2015-Aug-29 09:31N 31°30' E 121°23'0 0.0
2015-Aug-29 08:28N 31°30' E 121°23'0 0.0
2015-Aug-29 07:31N 31°30' E 121°23'0 0.0
2015-Aug-29 06:31N 31°30' E 121°23'0 0.0
2015-Aug-29 05:31N 31°30' E 121°23'0 0.0
2015-Aug-29 04:28N 31°30' E 121°23'0 0.0
2015-Aug-29 03:31N 31°30' E 121°23'0 0.0
2015-Aug-29 02:31N 31°30' E 121°23'0 0.0
2015-Aug-29 01:31N 31°30' E 121°23'0 0.0
2015-Aug-29 00:31N 31°30' E 121°23'0 0.0
2015-Aug-28 23:28N 31°30' E 121°23'0 0.0
2015-Aug-28 22:31N 31°30' E 121°23'0 0.0
2015-Aug-28 21:31N 31°30' E 121°23'0 0.0
2015-Aug-28 20:31N 31°30' E 121°23'0 0.0
2015-Aug-28 19:31N 31°30' E 121°23'0 0.0
2015-Aug-28 18:31N 31°30' E 121°23'2 2.2
2015-Aug-28 17:33N 31°31' E 121°21'2 1.6
2015-Aug-28 16:32N 31°32' E 121°23'0 0.0
2015-Aug-28 15:32N 31°32' E 121°23'0 0.0
2015-Aug-28 14:32N 31°32' E 121°23'0 0.1
2015-Aug-28 13:33N 31°32' E 121°23'0 0.2
2015-Aug-28 12:33N 31°32' E 121°23'0 0.0
2015-Aug-28 11:33N 31°32' E 121°23'0 0.0
2015-Aug-28 10:33N 31°32' E 121°23'0 0.0
2015-Aug-28 09:33N 31°32' E 121°23'0 0.0
2015-Aug-28 08:33N 31°32' E 121°23'0 0.0
2015-Aug-28 07:33N 31°32' E 121°23'0 0.0
2015-Aug-28 06:33N 31°32' E 121°23'0 0.2
2015-Aug-28 05:33N 31°32' E 121°23'4 3.7
2015-Aug-28 04:33N 31°29' E 121°26'1111.2
2015-Aug-28 03:33N 31°23' E 121°37'9 9.2
2015-Aug-28 02:33N 31°17' E 121°45'53 1.9
2015-Aug-26 23:09N 31°02' E 122°44'0 0.0
2015-Aug-26 21:33N 31°02' E 122°44'0 0.1
2015-Aug-26 20:32N 31°02' E 122°44'0 0.0
2015-Aug-26 19:33N 31°02' E 122°44'0 0.0
2015-Aug-26 18:33N 31°02' E 122°44'0 0.0
2015-Aug-26 17:27N 31°02' E 122°44'30910.0
2015-Aug-25 10:33N 35°34' E 119°49'  
2015-Aug-21 21:16N 31°16' E 122°41'  

Dump ship's entire track history